sensor_id;sensor_type;location;lat;lon;timestamp;temperature;humidity
14471;DHT22;7321;50.802;4.336;2023-10-19T00:02:06;17.30;99.90
14471;DHT22;7321;50.802;4.336;2023-10-19T00:04:33;17.30;99.90
14471;DHT22;7321;50.802;4.336;2023-10-19T00:07:04;17.30;99.90
14471;DHT22;7321;50.802;4.336;2023-10-19T00:09:36;17.10;99.90
14471;DHT22;7321;50.802;4.336;2023-10-19T00:12:04;17.10;99.90
14471;DHT22;7321;50.802;4.336;2023-10-19T00:14:32;17.30;99.90
14471;DHT22;7321;50.802;4.336;2023-10-19T00:16:58;17.30;99.90
14471;DHT22;7321;50.802;4.336;2023-10-19T00:19:34;17.40;99.90
14471;DHT22;7321;50.802;4.336;2023-10-19T00:22:08;17.30;99.90
14471;DHT22;7321;50.802;4.336;2023-10-19T00:24:35;17.30;99.90
14471;DHT22;7321;50.802;4.336;2023-10-19T00:27:01;17.30;99.90
14471;DHT22;7321;50.802;4.336;2023-10-19T00:29:41;17.20;99.90
14471;DHT22;7321;50.802;4.336;2023-10-19T00:32:16;17.20;99.90
14471;DHT22;7321;50.802;4.336;2023-10-19T00:34:43;17.20;99.90
14471;DHT22;7321;50.802;4.336;2023-10-19T00:37:18;17.20;99.90
14471;DHT22;7321;50.802;4.336;2023-10-19T00:39:52;17.30;99.90
14471;DHT22;7321;50.802;4.336;2023-10-19T00:42:21;17.30;99.90
14471;DHT22;7321;50.802;4.336;2023-10-19T00:44:51;17.30;99.90
14471;DHT22;7321;50.802;4.336;2023-10-19T00:47:26;17.30;99.90
14471;DHT22;7321;50.802;4.336;2023-10-19T00:49:56;17.50;99.90
14471;DHT22;7321;50.802;4.336;2023-10-19T00:52:21;17.40;99.90
14471;DHT22;7321;50.802;4.336;2023-10-19T00:54:50;17.20;99.90
14471;DHT22;7321;50.802;4.336;2023-10-19T00:57:19;17.20;99.90
14471;DHT22;7321;50.802;4.336;2023-10-19T00:59:58;17.20;99.90
14471;DHT22;7321;50.802;4.336;2023-10-19T01:02:39;17.30;99.90
14471;DHT22;7321;50.802;4.336;2023-10-19T01:05:12;17.20;99.90
14471;DHT22;7321;50.802;4.336;2023-10-19T01:07:41;17.20;99.90
14471;DHT22;7321;50.802;4.336;2023-10-19T01:10:09;17.20;99.90
14471;DHT22;7321;50.802;4.336;2023-10-19T01:12:49;17.10;99.90
14471;DHT22;7321;50.802;4.336;2023-10-19T01:15:20;17.10;99.90
14471;DHT22;7321;50.802;4.336;2023-10-19T01:17:58;17.20;99.90
14471;DHT22;7321;50.802;4.336;2023-10-19T01:20:27;17.20;99.90
14471;DHT22;7321;50.802;4.336;2023-10-19T01:25:46;17.00;99.90
14471;DHT22;7321;50.802;4.336;2023-10-19T01:28:16;17.10;99.90
14471;DHT22;7321;50.802;4.336;2023-10-19T01:30:43;17.00;99.90
14471;DHT22;7321;50.802;4.336;2023-10-19T01:33:17;17.00;99.90
14471;DHT22;7321;50.802;4.336;2023-10-19T01:35:50;16.80;99.90
14471;DHT22;7321;50.802;4.336;2023-10-19T01:38:34;16.80;99.90
14471;DHT22;7321;50.802;4.336;2023-10-19T01:41:01;16.80;99.90
14471;DHT22;7321;50.802;4.336;2023-10-19T01:43:28;16.90;99.90
14471;DHT22;7321;50.802;4.336;2023-10-19T01:45:58;16.90;99.90
14471;DHT22;7321;50.802;4.336;2023-10-19T01:48:29;17.00;99.90
14471;DHT22;7321;50.802;4.336;2023-10-19T01:51:05;17.00;99.90
14471;DHT22;7321;50.802;4.336;2023-10-19T01:53:32;17.10;99.90
14471;DHT22;7321;50.802;4.336;2023-10-19T01:55:58;16.90;99.90
14471;DHT22;7321;50.802;4.336;2023-10-19T01:58:27;16.90;99.90
14471;DHT22;7321;50.802;4.336;2023-10-19T02:00:53;16.80;99.90
14471;DHT22;7321;50.802;4.336;2023-10-19T02:03:21;16.90;99.90
14471;DHT22;7321;50.802;4.336;2023-10-19T02:05:58;17.00;99.90
14471;DHT22;7321;50.802;4.336;2023-10-19T02:08:25;16.90;99.90
14471;DHT22;7321;50.802;4.336;2023-10-19T02:10:53;16.80;99.90
14471;DHT22;7321;50.802;4.336;2023-10-19T02:13:22;16.70;99.90
14471;DHT22;7321;50.802;4.336;2023-10-19T02:15:51;16.60;99.90
14471;DHT22;7321;50.802;4.336;2023-10-19T02:18:17;16.60;99.90
14471;DHT22;7321;50.802;4.336;2023-10-19T02:20:43;16.70;99.90
14471;DHT22;7321;50.802;4.336;2023-10-19T02:23:14;16.70;99.90
14471;DHT22;7321;50.802;4.336;2023-10-19T02:25:41;16.80;99.90
14471;DHT22;7321;50.802;4.336;2023-10-19T02:28:07;16.70;99.90
14471;DHT22;7321;50.802;4.336;2023-10-19T02:30:35;16.80;99.90
14471;DHT22;7321;50.802;4.336;2023-10-19T02:33:01;16.80;99.90
14471;DHT22;7321;50.802;4.336;2023-10-19T02:35:29;16.80;99.90
14471;DHT22;7321;50.802;4.336;2023-10-19T02:37:56;16.70;99.90
14471;DHT22;7321;50.802;4.336;2023-10-19T02:40:22;16.70;99.90
14471;DHT22;7321;50.802;4.336;2023-10-19T02:42:50;16.50;99.90
14471;DHT22;7321;50.802;4.336;2023-10-19T02:45:19;16.30;99.90
14471;DHT22;7321;50.802;4.336;2023-10-19T02:47:46;16.40;99.90
14471;DHT22;7321;50.802;4.336;2023-10-19T02:50:12;16.40;99.90
14471;DHT22;7321;50.802;4.336;2023-10-19T02:52:48;16.60;99.90
14471;DHT22;7321;50.802;4.336;2023-10-19T02:55:14;16.70;99.90
14471;DHT22;7321;50.802;4.336;2023-10-19T02:57:42;16.60;99.90
14471;DHT22;7321;50.802;4.336;2023-10-19T03:00:13;16.60;99.90
14471;DHT22;7321;50.802;4.336;2023-10-19T03:02:40;16.60;99.90
14471;DHT22;7321;50.802;4.336;2023-10-19T03:05:07;16.50;99.90
14471;DHT22;7321;50.802;4.336;2023-10-19T03:07:41;16.50;99.90
14471;DHT22;7321;50.802;4.336;2023-10-19T03:10:12;16.60;99.90
14471;DHT22;7321;50.802;4.336;2023-10-19T03:13:03;16.50;99.90
14471;DHT22;7321;50.802;4.336;2023-10-19T03:15:30;16.50;99.90
14471;DHT22;7321;50.802;4.336;2023-10-19T03:17:58;16.50;99.90
14471;DHT22;7321;50.802;4.336;2023-10-19T03:20:25;16.60;99.90
14471;DHT22;7321;50.802;4.336;2023-10-19T03:22:53;16.50;99.90
14471;DHT22;7321;50.802;4.336;2023-10-19T03:25:18;16.60;99.90
14471;DHT22;7321;50.802;4.336;2023-10-19T03:28:03;16.60;99.90
14471;DHT22;7321;50.802;4.336;2023-10-19T03:30:36;16.70;99.90
14471;DHT22;7321;50.802;4.336;2023-10-19T03:33:07;16.60;99.90
14471;DHT22;7321;50.802;4.336;2023-10-19T03:35:38;16.70;99.90
14471;DHT22;7321;50.802;4.336;2023-10-19T03:38:07;16.70;99.90
14471;DHT22;7321;50.802;4.336;2023-10-19T03:40:40;16.80;99.90
14471;DHT22;7321;50.802;4.336;2023-10-19T03:43:07;16.80;99.90
14471;DHT22;7321;50.802;4.336;2023-10-19T03:45:48;16.90;99.90
14471;DHT22;7321;50.802;4.336;2023-10-19T03:48:18;16.70;99.90
14471;DHT22;7321;50.802;4.336;2023-10-19T03:50:50;16.70;99.90
14471;DHT22;7321;50.802;4.336;2023-10-19T03:53:18;16.70;99.90
14471;DHT22;7321;50.802;4.336;2023-10-19T03:55:44;16.80;99.90
14471;DHT22;7321;50.802;4.336;2023-10-19T03:58:10;16.60;99.90
14471;DHT22;7321;50.802;4.336;2023-10-19T04:00:37;16.60;99.90
14471;DHT22;7321;50.802;4.336;2023-10-19T04:03:04;16.70;99.90
14471;DHT22;7321;50.802;4.336;2023-10-19T04:05:30;16.70;99.90
14471;DHT22;7321;50.802;4.336;2023-10-19T04:07:57;16.70;99.90
14471;DHT22;7321;50.802;4.336;2023-10-19T04:10:24;16.70;99.90
14471;DHT22;7321;50.802;4.336;2023-10-19T04:13:11;16.70;99.90
14471;DHT22;7321;50.802;4.336;2023-10-19T04:15:38;16.60;99.90
14471;DHT22;7321;50.802;4.336;2023-10-19T04:18:04;16.70;99.90
14471;DHT22;7321;50.802;4.336;2023-10-19T04:20:37;16.80;99.90
14471;DHT22;7321;50.802;4.336;2023-10-19T04:23:19;16.90;99.90
14471;DHT22;7321;50.802;4.336;2023-10-19T04:25:47;16.80;99.90
14471;DHT22;7321;50.802;4.336;2023-10-19T04:28:13;16.70;99.90
14471;DHT22;7321;50.802;4.336;2023-10-19T04:30:58;16.70;99.90
14471;DHT22;7321;50.802;4.336;2023-10-19T04:33:31;16.70;99.90
14471;DHT22;7321;50.802;4.336;2023-10-19T04:35:58;16.90;99.90
14471;DHT22;7321;50.802;4.336;2023-10-19T04:38:30;17.00;99.90
14471;DHT22;7321;50.802;4.336;2023-10-19T04:41:07;17.10;99.90
14471;DHT22;7321;50.802;4.336;2023-10-19T04:43:38;17.20;99.90
14471;DHT22;7321;50.802;4.336;2023-10-19T04:46:09;17.20;99.90
14471;DHT22;7321;50.802;4.336;2023-10-19T04:48:39;17.20;99.90
14471;DHT22;7321;50.802;4.336;2023-10-19T04:51:07;17.20;99.90
14471;DHT22;7321;50.802;4.336;2023-10-19T04:53:35;17.10;99.90
14471;DHT22;7321;50.802;4.336;2023-10-19T04:56:02;17.00;99.90
14471;DHT22;7321;50.802;4.336;2023-10-19T04:58:29;16.90;99.90
14471;DHT22;7321;50.802;4.336;2023-10-19T05:00:55;17.10;99.90
14471;DHT22;7321;50.802;4.336;2023-10-19T05:03:24;17.20;99.90
14471;DHT22;7321;50.802;4.336;2023-10-19T05:05:50;17.20;99.90
14471;DHT22;7321;50.802;4.336;2023-10-19T05:08:17;17.10;99.90
14471;DHT22;7321;50.802;4.336;2023-10-19T05:10:43;17.10;99.90
14471;DHT22;7321;50.802;4.336;2023-10-19T05:13:08;17.00;99.90
14471;DHT22;7321;50.802;4.336;2023-10-19T05:15:34;17.20;99.90
14471;DHT22;7321;50.802;4.336;2023-10-19T05:18:01;17.10;99.90
14471;DHT22;7321;50.802;4.336;2023-10-19T05:20:27;17.30;99.90
14471;DHT22;7321;50.802;4.336;2023-10-19T05:22:53;17.40;99.90
14471;DHT22;7321;50.802;4.336;2023-10-19T05:25:19;17.50;99.90
14471;DHT22;7321;50.802;4.336;2023-10-19T05:27:45;17.40;99.90
14471;DHT22;7321;50.802;4.336;2023-10-19T05:30:11;17.40;99.90
14471;DHT22;7321;50.802;4.336;2023-10-19T05:32:37;17.40;99.90
14471;DHT22;7321;50.802;4.336;2023-10-19T05:35:04;17.30;99.90
14471;DHT22;7321;50.802;4.336;2023-10-19T05:37:31;17.30;99.90
14471;DHT22;7321;50.802;4.336;2023-10-19T05:39:57;17.50;99.90
14471;DHT22;7321;50.802;4.336;2023-10-19T05:42:24;17.40;99.90
14471;DHT22;7321;50.802;4.336;2023-10-19T05:44:50;17.40;99.90
14471;DHT22;7321;50.802;4.336;2023-10-19T05:47:17;17.50;99.90
14471;DHT22;7321;50.802;4.336;2023-10-19T05:49:43;17.50;99.90
14471;DHT22;7321;50.802;4.336;2023-10-19T05:52:09;17.50;99.90
14471;DHT22;7321;50.802;4.336;2023-10-19T05:54:35;17.40;99.90
14471;DHT22;7321;50.802;4.336;2023-10-19T05:57:03;17.30;99.90
14471;DHT22;7321;50.802;4.336;2023-10-19T05:59:33;17.40;99.90
14471;DHT22;7321;50.802;4.336;2023-10-19T06:01:59;17.40;99.90
14471;DHT22;7321;50.802;4.336;2023-10-19T06:04:25;17.20;99.90
14471;DHT22;7321;50.802;4.336;2023-10-19T06:06:51;17.20;99.90
14471;DHT22;7321;50.802;4.336;2023-10-19T06:09:17;17.20;99.90
14471;DHT22;7321;50.802;4.336;2023-10-19T06:11:44;17.10;99.90
14471;DHT22;7321;50.802;4.336;2023-10-19T06:14:10;17.10;99.90
14471;DHT22;7321;50.802;4.336;2023-10-19T06:16:36;17.10;99.90
14471;DHT22;7321;50.802;4.336;2023-10-19T06:19:02;17.20;99.90
14471;DHT22;7321;50.802;4.336;2023-10-19T06:21:28;17.20;99.90
14471;DHT22;7321;50.802;4.336;2023-10-19T06:23:55;17.20;99.90
14471;DHT22;7321;50.802;4.336;2023-10-19T06:26:21;17.30;99.90
14471;DHT22;7321;50.802;4.336;2023-10-19T06:28:47;17.10;99.90
14471;DHT22;7321;50.802;4.336;2023-10-19T06:31:13;17.20;99.90
14471;DHT22;7321;50.802;4.336;2023-10-19T06:33:41;17.20;99.90
14471;DHT22;7321;50.802;4.336;2023-10-19T06:36:07;17.10;99.90
14471;DHT22;7321;50.802;4.336;2023-10-19T06:38:33;17.10;99.90
14471;DHT22;7321;50.802;4.336;2023-10-19T06:41:10;17.20;99.90
14471;DHT22;7321;50.802;4.336;2023-10-19T06:43:37;17.20;99.90
14471;DHT22;7321;50.802;4.336;2023-10-19T06:46:14;17.10;99.90
14471;DHT22;7321;50.802;4.336;2023-10-19T06:48:40;17.30;99.90
14471;DHT22;7321;50.802;4.336;2023-10-19T06:51:12;17.10;99.90
14471;DHT22;7321;50.802;4.336;2023-10-19T06:53:40;16.90;99.90
14471;DHT22;7321;50.802;4.336;2023-10-19T06:56:07;16.90;99.90
14471;DHT22;7321;50.802;4.336;2023-10-19T06:58:33;16.80;99.90
14471;DHT22;7321;50.802;4.336;2023-10-19T07:00:59;16.70;99.90
14471;DHT22;7321;50.802;4.336;2023-10-19T07:03:31;16.70;99.90
14471;DHT22;7321;50.802;4.336;2023-10-19T07:05:56;16.70;99.90
14471;DHT22;7321;50.802;4.336;2023-10-19T07:08:30;16.60;99.90
14471;DHT22;7321;50.802;4.336;2023-10-19T07:10:55;16.70;99.90
14471;DHT22;7321;50.802;4.336;2023-10-19T07:13:21;16.60;99.90
14471;DHT22;7321;50.802;4.336;2023-10-19T07:15:50;16.70;99.90
14471;DHT22;7321;50.802;4.336;2023-10-19T07:18:17;16.70;99.90
14471;DHT22;7321;50.802;4.336;2023-10-19T07:20:45;16.80;99.90
14471;DHT22;7321;50.802;4.336;2023-10-19T07:23:17;16.90;99.90
14471;DHT22;7321;50.802;4.336;2023-10-19T07:25:53;17.00;99.90
14471;DHT22;7321;50.802;4.336;2023-10-19T07:28:32;17.10;99.90
14471;DHT22;7321;50.802;4.336;2023-10-19T07:30:58;17.00;99.90
14471;DHT22;7321;50.802;4.336;2023-10-19T07:33:32;17.00;99.90
14471;DHT22;7321;50.802;4.336;2023-10-19T07:36:02;17.10;99.90
14471;DHT22;7321;50.802;4.336;2023-10-19T07:38:32;17.00;99.90
14471;DHT22;7321;50.802;4.336;2023-10-19T07:41:02;17.10;99.90
14471;DHT22;7321;50.802;4.336;2023-10-19T07:43:29;17.10;99.90
14471;DHT22;7321;50.802;4.336;2023-10-19T07:45:55;17.10;99.90
14471;DHT22;7321;50.802;4.336;2023-10-19T07:48:21;17.20;99.90
14471;DHT22;7321;50.802;4.336;2023-10-19T07:50:50;17.30;99.90
14471;DHT22;7321;50.802;4.336;2023-10-19T07:53:15;17.10;99.90
14471;DHT22;7321;50.802;4.336;2023-10-19T07:55:42;17.20;99.90
14471;DHT22;7321;50.802;4.336;2023-10-19T07:58:09;17.00;99.90
14471;DHT22;7321;50.802;4.336;2023-10-19T08:00:36;16.90;99.90
14471;DHT22;7321;50.802;4.336;2023-10-19T08:03:02;16.80;99.90
14471;DHT22;7321;50.802;4.336;2023-10-19T08:05:29;16.70;99.90
14471;DHT22;7321;50.802;4.336;2023-10-19T08:07:56;16.90;99.90
14471;DHT22;7321;50.802;4.336;2023-10-19T08:10:24;16.80;99.90
14471;DHT22;7321;50.802;4.336;2023-10-19T08:12:51;17.00;99.90
14471;DHT22;7321;50.802;4.336;2023-10-19T08:15:18;17.10;99.90
14471;DHT22;7321;50.802;4.336;2023-10-19T08:17:50;17.10;99.90
14471;DHT22;7321;50.802;4.336;2023-10-19T08:20:16;17.10;99.90
14471;DHT22;7321;50.802;4.336;2023-10-19T08:23:03;17.10;99.90
14471;DHT22;7321;50.802;4.336;2023-10-19T08:25:29;17.40;99.90
14471;DHT22;7321;50.802;4.336;2023-10-19T08:27:54;17.20;99.90
14471;DHT22;7321;50.802;4.336;2023-10-19T08:30:23;17.20;99.90
14471;DHT22;7321;50.802;4.336;2023-10-19T08:32:51;17.10;99.90
14471;DHT22;7321;50.802;4.336;2023-10-19T08:35:21;17.10;99.90
14471;DHT22;7321;50.802;4.336;2023-10-19T08:37:51;17.20;99.90
14471;DHT22;7321;50.802;4.336;2023-10-19T08:40:17;17.10;99.90
14471;DHT22;7321;50.802;4.336;2023-10-19T08:42:46;17.10;99.90
14471;DHT22;7321;50.802;4.336;2023-10-19T08:45:12;17.00;99.90
14471;DHT22;7321;50.802;4.336;2023-10-19T08:47:54;17.20;99.90
14471;DHT22;7321;50.802;4.336;2023-10-19T08:50:25;17.30;99.90
14471;DHT22;7321;50.802;4.336;2023-10-19T08:52:53;17.40;99.90
14471;DHT22;7321;50.802;4.336;2023-10-19T08:55:20;17.40;99.90
14471;DHT22;7321;50.802;4.336;2023-10-19T08:57:50;17.50;99.90
14471;DHT22;7321;50.802;4.336;2023-10-19T09:00:19;17.30;99.90
14471;DHT22;7321;50.802;4.336;2023-10-19T09:02:51;17.30;99.90
14471;DHT22;7321;50.802;4.336;2023-10-19T09:05:18;17.50;99.90
14471;DHT22;7321;50.802;4.336;2023-10-19T09:07:53;17.70;99.90
14471;DHT22;7321;50.802;4.336;2023-10-19T09:10:26;17.80;99.90
14471;DHT22;7321;50.802;4.336;2023-10-19T09:13:03;17.90;99.90
14471;DHT22;7321;50.802;4.336;2023-10-19T09:15:31;18.00;99.90
14471;DHT22;7321;50.802;4.336;2023-10-19T09:18:27;18.10;99.90
14471;DHT22;7321;50.802;4.336;2023-10-19T09:20:55;18.10;99.90
14471;DHT22;7321;50.802;4.336;2023-10-19T09:23:44;18.20;99.90
14471;DHT22;7321;50.802;4.336;2023-10-19T09:26:23;18.30;99.90
14471;DHT22;7321;50.802;4.336;2023-10-19T09:28:59;18.50;99.90
14471;DHT22;7321;50.802;4.336;2023-10-19T09:31:44;18.50;99.90
14471;DHT22;7321;50.802;4.336;2023-10-19T09:34:50;18.70;99.90
14471;DHT22;7321;50.802;4.336;2023-10-19T09:37:24;18.90;99.90
14471;DHT22;7321;50.802;4.336;2023-10-19T09:39:57;18.70;99.90
14471;DHT22;7321;50.802;4.336;2023-10-19T09:42:24;18.70;99.90
14471;DHT22;7321;50.802;4.336;2023-10-19T09:44:59;18.60;99.90
14471;DHT22;7321;50.802;4.336;2023-10-19T09:47:35;18.70;99.90
14471;DHT22;7321;50.802;4.336;2023-10-19T09:50:05;18.60;99.90
14471;DHT22;7321;50.802;4.336;2023-10-19T09:52:39;18.70;99.90
14471;DHT22;7321;50.802;4.336;2023-10-19T09:57:50;19.00;99.90
14471;DHT22;7321;50.802;4.336;2023-10-19T10:00:20;19.30;99.90
14471;DHT22;7321;50.802;4.336;2023-10-19T10:02:57;19.50;99.90
14471;DHT22;7321;50.802;4.336;2023-10-19T10:10:49;19.20;99.90
14471;DHT22;7321;50.802;4.336;2023-10-19T10:15:56;19.10;99.90
14471;DHT22;7321;50.802;4.336;2023-10-19T10:18:26;19.00;99.90
14471;DHT22;7321;50.802;4.336;2023-10-19T10:23:53;19.30;99.90
14471;DHT22;7321;50.802;4.336;2023-10-19T10:26:28;19.30;99.90
14471;DHT22;7321;50.802;4.336;2023-10-19T10:29:21;19.50;99.90
14471;DHT22;7321;50.802;4.336;2023-10-19T10:31:50;19.70;99.90
14471;DHT22;7321;50.802;4.336;2023-10-19T10:37:07;19.50;99.90
14471;DHT22;7321;50.802;4.336;2023-10-19T10:39:34;19.30;99.90
14471;DHT22;7321;50.802;4.336;2023-10-19T10:42:05;19.40;99.90
14471;DHT22;7321;50.802;4.336;2023-10-19T10:44:46;19.50;99.90
14471;DHT22;7321;50.802;4.336;2023-10-19T10:47:20;19.60;99.90
14471;DHT22;7321;50.802;4.336;2023-10-19T10:49:54;19.70;99.90
14471;DHT22;7321;50.802;4.336;2023-10-19T10:52:34;19.70;99.90
14471;DHT22;7321;50.802;4.336;2023-10-19T10:55:08;19.60;99.90
14471;DHT22;7321;50.802;4.336;2023-10-19T10:57:39;19.30;99.90
14471;DHT22;7321;50.802;4.336;2023-10-19T11:00:13;19.30;99.90
14471;DHT22;7321;50.802;4.336;2023-10-19T11:02:45;19.20;99.90
14471;DHT22;7321;50.802;4.336;2023-10-19T11:05:16;19.20;99.90
14471;DHT22;7321;50.802;4.336;2023-10-19T11:08:09;19.20;99.90
14471;DHT22;7321;50.802;4.336;2023-10-19T11:10:40;19.20;99.90
14471;DHT22;7321;50.802;4.336;2023-10-19T11:13:09;19.20;99.90
14471;DHT22;7321;50.802;4.336;2023-10-19T11:15:37;19.30;99.90
14471;DHT22;7321;50.802;4.336;2023-10-19T11:18:04;19.30;99.90
14471;DHT22;7321;50.802;4.336;2023-10-19T11:20:30;19.30;99.90
14471;DHT22;7321;50.802;4.336;2023-10-19T11:22:57;19.10;99.90
14471;DHT22;7321;50.802;4.336;2023-10-19T11:25:30;19.20;99.90
14471;DHT22;7321;50.802;4.336;2023-10-19T11:28:21;19.20;99.90
14471;DHT22;7321;50.802;4.336;2023-10-19T11:30:46;19.20;99.90
14471;DHT22;7321;50.802;4.336;2023-10-19T11:33:14;19.40;99.90
14471;DHT22;7321;50.802;4.336;2023-10-19T11:35:43;19.20;99.90
14471;DHT22;7321;50.802;4.336;2023-10-19T11:38:09;19.10;99.90
14471;DHT22;7321;50.802;4.336;2023-10-19T11:40:35;19.10;99.90
14471;DHT22;7321;50.802;4.336;2023-10-19T11:43:01;19.00;99.90
14471;DHT22;7321;50.802;4.336;2023-10-19T11:45:27;19.10;99.90
14471;DHT22;7321;50.802;4.336;2023-10-19T11:47:54;19.20;99.90
14471;DHT22;7321;50.802;4.336;2023-10-19T11:50:20;19.20;99.90
14471;DHT22;7321;50.802;4.336;2023-10-19T11:52:46;19.20;99.90
14471;DHT22;7321;50.802;4.336;2023-10-19T11:55:13;19.20;99.90
14471;DHT22;7321;50.802;4.336;2023-10-19T11:57:40;19.10;99.90
14471;DHT22;7321;50.802;4.336;2023-10-19T12:00:10;19.20;99.90
14471;DHT22;7321;50.802;4.336;2023-10-19T12:02:40;19.30;99.90
14471;DHT22;7321;50.802;4.336;2023-10-19T12:05:09;19.10;99.90
14471;DHT22;7321;50.802;4.336;2023-10-19T12:07:39;18.90;99.90
14471;DHT22;7321;50.802;4.336;2023-10-19T12:10:09;19.00;99.90
14471;DHT22;7321;50.802;4.336;2023-10-19T12:12:36;18.90;99.90
14471;DHT22;7321;50.802;4.336;2023-10-19T12:15:07;18.80;99.90
14471;DHT22;7321;50.802;4.336;2023-10-19T12:17:33;18.80;99.90
14471;DHT22;7321;50.802;4.336;2023-10-19T12:19:59;18.60;99.90
14471;DHT22;7321;50.802;4.336;2023-10-19T12:22:26;18.70;99.90
14471;DHT22;7321;50.802;4.336;2023-10-19T12:24:58;18.70;99.90
14471;DHT22;7321;50.802;4.336;2023-10-19T12:27:25;18.80;99.90
14471;DHT22;7321;50.802;4.336;2023-10-19T12:29:51;18.70;99.90
14471;DHT22;7321;50.802;4.336;2023-10-19T12:32:20;18.80;99.90
14471;DHT22;7321;50.802;4.336;2023-10-19T12:34:47;18.80;99.90
14471;DHT22;7321;50.802;4.336;2023-10-19T12:37:19;19.00;99.90
14471;DHT22;7321;50.802;4.336;2023-10-19T12:39:45;19.30;99.90
14471;DHT22;7321;50.802;4.336;2023-10-19T12:42:15;19.40;99.90
14471;DHT22;7321;50.802;4.336;2023-10-19T12:44:41;19.70;99.90
14471;DHT22;7321;50.802;4.336;2023-10-19T12:47:08;19.80;99.90
14471;DHT22;7321;50.802;4.336;2023-10-19T12:49:41;19.80;99.90
14471;DHT22;7321;50.802;4.336;2023-10-19T12:52:10;19.60;99.90
14471;DHT22;7321;50.802;4.336;2023-10-19T12:54:36;19.70;99.90
14471;DHT22;7321;50.802;4.336;2023-10-19T12:57:03;19.80;99.90
14471;DHT22;7321;50.802;4.336;2023-10-19T12:59:33;20.00;99.90
14471;DHT22;7321;50.802;4.336;2023-10-19T13:01:59;20.00;99.90
14471;DHT22;7321;50.802;4.336;2023-10-19T13:04:28;20.10;99.90
14471;DHT22;7321;50.802;4.336;2023-10-19T13:06:56;19.90;99.90
14471;DHT22;7321;50.802;4.336;2023-10-19T13:09:26;20.00;99.90
14471;DHT22;7321;50.802;4.336;2023-10-19T13:11:57;20.00;99.90
14471;DHT22;7321;50.802;4.336;2023-10-19T13:14:24;20.00;99.90
14471;DHT22;7321;50.802;4.336;2023-10-19T13:16:52;20.10;99.90
14471;DHT22;7321;50.802;4.336;2023-10-19T13:19:20;19.90;99.90
14471;DHT22;7321;50.802;4.336;2023-10-19T13:21:50;19.80;99.90
14471;DHT22;7321;50.802;4.336;2023-10-19T13:24:19;19.60;99.90
14471;DHT22;7321;50.802;4.336;2023-10-19T13:26:48;19.40;99.90
14471;DHT22;7321;50.802;4.336;2023-10-19T13:29:14;19.50;99.90
14471;DHT22;7321;50.802;4.336;2023-10-19T13:31:44;19.80;99.90
14471;DHT22;7321;50.802;4.336;2023-10-19T13:34:15;19.80;99.90
14471;DHT22;7321;50.802;4.336;2023-10-19T13:36:42;19.60;99.90
14471;DHT22;7321;50.802;4.336;2023-10-19T13:39:10;19.70;99.90
14471;DHT22;7321;50.802;4.336;2023-10-19T13:41:42;19.70;99.90
14471;DHT22;7321;50.802;4.336;2023-10-19T13:44:11;19.70;99.90
14471;DHT22;7321;50.802;4.336;2023-10-19T13:46:37;19.60;99.90
14471;DHT22;7321;50.802;4.336;2023-10-19T13:49:06;19.40;99.90
14471;DHT22;7321;50.802;4.336;2023-10-19T13:51:32;19.50;99.90
14471;DHT22;7321;50.802;4.336;2023-10-19T13:53:58;19.50;99.90
14471;DHT22;7321;50.802;4.336;2023-10-19T13:56:25;19.50;99.90
14471;DHT22;7321;50.802;4.336;2023-10-19T13:58:54;19.50;99.90
14471;DHT22;7321;50.802;4.336;2023-10-19T14:01:20;19.40;99.90
14471;DHT22;7321;50.802;4.336;2023-10-19T14:03:53;19.40;99.90
14471;DHT22;7321;50.802;4.336;2023-10-19T14:06:20;19.50;99.90
14471;DHT22;7321;50.802;4.336;2023-10-19T14:08:51;19.50;99.90
14471;DHT22;7321;50.802;4.336;2023-10-19T14:11:17;19.60;99.90
14471;DHT22;7321;50.802;4.336;2023-10-19T14:13:43;19.60;99.90
14471;DHT22;7321;50.802;4.336;2023-10-19T14:16:12;19.70;99.90
14471;DHT22;7321;50.802;4.336;2023-10-19T14:18:38;19.60;99.90
14471;DHT22;7321;50.802;4.336;2023-10-19T14:21:11;19.50;99.90
14471;DHT22;7321;50.802;4.336;2023-10-19T14:23:42;19.60;99.90
14471;DHT22;7321;50.802;4.336;2023-10-19T14:26:10;19.60;99.90
14471;DHT22;7321;50.802;4.336;2023-10-19T14:28:40;19.50;99.90
14471;DHT22;7321;50.802;4.336;2023-10-19T14:31:06;19.50;99.90
14471;DHT22;7321;50.802;4.336;2023-10-19T14:33:36;19.40;99.90
14471;DHT22;7321;50.802;4.336;2023-10-19T14:36:04;19.40;99.90
14471;DHT22;7321;50.802;4.336;2023-10-19T14:38:30;19.50;99.90
14471;DHT22;7321;50.802;4.336;2023-10-19T14:40:56;19.50;99.90
14471;DHT22;7321;50.802;4.336;2023-10-19T14:43:23;19.40;99.90
14471;DHT22;7321;50.802;4.336;2023-10-19T14:45:51;19.40;99.90
14471;DHT22;7321;50.802;4.336;2023-10-19T14:48:17;19.30;99.90
14471;DHT22;7321;50.802;4.336;2023-10-19T14:50:45;19.40;99.90
14471;DHT22;7321;50.802;4.336;2023-10-19T14:53:11;19.50;99.90
14471;DHT22;7321;50.802;4.336;2023-10-19T14:55:42;19.50;99.90
14471;DHT22;7321;50.802;4.336;2023-10-19T14:58:08;19.50;99.90
14471;DHT22;7321;50.802;4.336;2023-10-19T15:00:35;19.60;99.90
14471;DHT22;7321;50.802;4.336;2023-10-19T15:03:04;19.50;99.90
14471;DHT22;7321;50.802;4.336;2023-10-19T15:05:34;19.50;99.90
14471;DHT22;7321;50.802;4.336;2023-10-19T15:08:04;19.50;99.90
14471;DHT22;7321;50.802;4.336;2023-10-19T15:10:31;19.30;99.90
14471;DHT22;7321;50.802;4.336;2023-10-19T15:12:58;19.30;99.90
14471;DHT22;7321;50.802;4.336;2023-10-19T15:15:27;19.30;99.90
14471;DHT22;7321;50.802;4.336;2023-10-19T15:17:54;19.20;99.90
14471;DHT22;7321;50.802;4.336;2023-10-19T15:20:24;19.30;99.90
14471;DHT22;7321;50.802;4.336;2023-10-19T15:22:51;19.30;99.90
14471;DHT22;7321;50.802;4.336;2023-10-19T15:25:20;19.10;99.90
14471;DHT22;7321;50.802;4.336;2023-10-19T15:27:55;19.20;99.90
14471;DHT22;7321;50.802;4.336;2023-10-19T15:30:21;19.40;99.90
14471;DHT22;7321;50.802;4.336;2023-10-19T15:32:49;19.40;99.90
14471;DHT22;7321;50.802;4.336;2023-10-19T15:35:21;19.30;99.90
14471;DHT22;7321;50.802;4.336;2023-10-19T15:37:51;19.20;99.90
14471;DHT22;7321;50.802;4.336;2023-10-19T15:40:21;19.20;99.90
14471;DHT22;7321;50.802;4.336;2023-10-19T15:42:50;19.00;99.90
14471;DHT22;7321;50.802;4.336;2023-10-19T15:45:24;18.90;99.90
14471;DHT22;7321;50.802;4.336;2023-10-19T15:47:53;18.90;99.90
14471;DHT22;7321;50.802;4.336;2023-10-19T15:50:29;18.80;99.90
14471;DHT22;7321;50.802;4.336;2023-10-19T15:53:00;18.70;99.90
14471;DHT22;7321;50.802;4.336;2023-10-19T15:55:29;18.70;99.90
14471;DHT22;7321;50.802;4.336;2023-10-19T15:57:55;18.80;99.90
14471;DHT22;7321;50.802;4.336;2023-10-19T16:00:24;18.90;99.90
14471;DHT22;7321;50.802;4.336;2023-10-19T16:02:53;19.00;99.90
14471;DHT22;7321;50.802;4.336;2023-10-19T16:05:27;19.10;99.90
14471;DHT22;7321;50.802;4.336;2023-10-19T16:07:53;19.10;99.90
14471;DHT22;7321;50.802;4.336;2023-10-19T16:10:22;19.30;99.90
14471;DHT22;7321;50.802;4.336;2023-10-19T16:12:54;19.20;99.90
14471;DHT22;7321;50.802;4.336;2023-10-19T16:15:23;19.10;99.90
14471;DHT22;7321;50.802;4.336;2023-10-19T16:17:49;18.90;99.90
14471;DHT22;7321;50.802;4.336;2023-10-19T16:20:19;18.70;99.90